Time;durP1;ratioP1;P1;durP2;ratioP2;P2;SDS_P1;SDS_P2;PMS_P1;PMS_P2;Temp;Humidity;BMP_temperature;BMP_pressure;BME280_temperature;BME280_humidity;BME280_pressure;Samples;Min_cycle;Max_cycle;Signal;HPM_P1;HPM_P2
2022/10/13 00:00:51;;;;;;;7.80;2.58;;;23.10;69.60;;;;;;5111894;28;20203;-36
2022/10/13 00:03:18;;;;;;;5.05;2.30;;;23.10;69.80;;;;;;5103444;28;20016;-35
2022/10/13 00:05:46;;;;;;;3.45;2.45;;;23.10;69.80;;;;;;5104489;28;20685;-36
2022/10/13 00:08:12;;;;;;;104.43;70.50;;;23.10;69.90;;;;;;5124004;28;20023;-36
2022/10/13 00:10:38;;;;;;;165.70;108.05;;;23.10;69.80;;;;;;5123510;28;20058;-35
2022/10/13 00:13:05;;;;;;;165.47;112.40;;;23.10;69.90;;;;;;5122744;27;20024;-36
2022/10/13 00:15:31;;;;;;;230.23;150.73;;;23.10;70.00;;;;;;5097289;28;20288;-36
2022/10/13 00:17:57;;;;;;;277.02;187.57;;;23.10;70.00;;;;;;5103127;28;20015;-36
2022/10/13 00:20:23;;;;;;;356.33;248.93;;;23.10;70.00;;;;;;5101317;28;20073;-35
2022/10/13 00:22:49;;;;;;;402.45;281.45;;;23.10;69.90;;;;;;5101102;28;20050;-40
2022/10/13 00:25:15;;;;;;;448.48;315.65;;;23.10;69.80;;;;;;5100817;28;20032;-34
2022/10/13 00:27:41;;;;;;;466.42;329.77;;;23.10;69.80;;;;;;5101976;28;20038;-35
2022/10/13 00:30:08;;;;;;;414.50;292.02;;;23.10;69.70;;;;;;5099237;28;20032;-41
2022/10/13 00:32:34;;;;;;;357.77;249.70;;;23.10;69.80;;;;;;5102787;28;20039;-42
2022/10/13 00:35:00;;;;;;;335.00;236.05;;;23.20;69.90;;;;;;5100274;28;20032;-40
2022/10/13 00:37:26;;;;;;;244.57;161.98;;;23.20;69.80;;;;;;5100802;28;20028;-42
2022/10/13 00:39:52;;;;;;;205.88;134.75;;;23.20;69.50;;;;;;5102563;28;20035;-40
2022/10/13 00:42:19;;;;;;;156.50;102.78;;;23.20;69.70;;;;;;5100844;28;20567;-38
2022/10/13 00:45:03;;;;;;;92.40;59.65;;;23.30;70.30;;;;;;5104614;28;20024;-38
2022/10/13 00:47:40;;;;;;;140.82;93.57;;;23.30;70.30;;;;;;5099772;28;20099;-44
2022/10/13 00:50:11;;;;;;;143.23;100.63;;;23.30;70.60;;;;;;5100767;28;20047;-40
2022/10/13 00:52:38;;;;;;;125.38;85.07;;;23.30;69.90;;;;;;5098550;28;20074;-66
2022/10/13 00:55:05;;;;;;;109.50;73.55;;;23.30;69.80;;;;;;5102762;28;20089;-43
2022/10/13 00:57:53;;;;;;;85.45;58.40;;;23.40;69.90;;;;;;5036997;28;20095;-39
2022/10/13 01:00:21;;;;;;;77.70;52.22;;;23.40;69.60;;;;;;5035177;28;20041;-39
2022/10/13 01:02:47;;;;;;;76.05;48.42;;;23.40;69.60;;;;;;5037052;28;20030;-38
2022/10/13 01:05:13;;;;;;;65.78;43.40;;;23.40;69.60;;;;;;5038613;28;20132;-43
2022/10/13 01:07:40;;;;;;;59.70;38.88;;;23.40;70.50;;;;;;5021200;28;20113;-45
2022/10/13 01:10:06;;;;;;;51.67;33.90;;;23.40;70.60;;;;;;5037015;28;20049;-40
2022/10/13 01:12:43;;;;;;;44.67;31.08;;;23.40;71.30;;;;;;5039221;28;20117;-40
2022/10/13 01:15:40;;;;;;;46.17;28.35;;;23.40;71.10;;;;;;5021838;28;20034;-40
2022/10/13 01:18:38;;;;;;;41.20;24.88;;;23.40;70.70;;;;;;4999053;28;20162;-39
2022/10/13 01:21:04;;;;;;;41.60;24.73;;;23.40;70.40;;;;;;4987591;28;20138;-38
2022/10/13 01:23:54;;;;;;;38.15;24.00;;;23.40;70.70;;;;;;4998871;28;20038;-43
2022/10/13 01:26:39;;;;;;;35.70;21.92;;;23.40;70.40;;;;;;4999314;28;20030;-39
2022/10/13 01:29:14;;;;;;;31.88;19.83;;;23.50;71.20;;;;;;4997496;28;20159;-42
2022/10/13 01:31:48;;;;;;;29.55;19.33;;;23.50;71.10;;;;;;4996626;28;20636;-51
2022/10/13 01:34:21;;;;;;;28.85;18.05;;;23.50;71.10;;;;;;5009754;28;20191;-39
2022/10/13 01:36:54;;;;;;;25.67;15.73;;;23.50;70.90;;;;;;5052087;28;20045;-41
2022/10/13 01:39:56;;;;;;;23.30;15.35;;;23.50;70.60;;;;;;5037481;28;20032;-38
2022/10/13 01:42:57;;;;;;;21.08;13.90;;;23.50;70.40;;;;;;5057369;28;20040;-38
2022/10/13 01:45:28;;;;;;;18.63;12.43;;;23.50;70.10;;;;;;5037256;28;20032;-41
2022/10/13 01:47:54;;;;;;;19.08;12.07;;;23.50;69.90;;;;;;5057517;28;20053;-38
2022/10/13 01:50:40;;;;;;;16.17;11.23;;;23.50;69.70;;;;;;5059735;28;20084;-36
2022/10/13 01:53:06;;;;;;;17.40;10.50;;;23.50;69.60;;;;;;5018890;28;20093;-39
2022/10/13 01:55:33;;;;;;;15.80;9.57;;;23.50;69.50;;;;;;5046209;28;20036;-34
2022/10/13 01:58:00;;;;;;;15.75;9.65;;;23.50;69.40;;;;;;5060863;28;20071;-35
2022/10/13 02:00:26;;;;;;;14.65;8.77;;;23.50;69.30;;;;;;5059890;28;20040;-36
2022/10/13 02:03:21;;;;;;;11.75;7.80;;;23.50;69.20;;;;;;5043131;28;20032;-35
2022/10/13 02:05:55;;;;;;;10.13;6.82;;;23.50;69.30;;;;;;5059830;28;20056;-42
2022/10/13 02:08:32;;;;;;;13.68;7.78;;;23.50;69.50;;;;;;5044184;28;20032;-34
2022/10/13 02:11:06;;;;;;;12.02;7.13;;;23.50;69.60;;;;;;5043670;28;20084;-34
2022/10/13 02:13:34;;;;;;;9.30;6.28;;;23.50;69.60;;;;;;5059291;28;20088;-33
2022/10/13 02:16:00;;;;;;;9.85;6.25;;;23.40;69.50;;;;;;5059086;28;20140;-32
2022/10/13 02:18:30;;;;;;;8.77;5.65;;;23.40;69.50;;;;;;5042236;28;20110;-33
2022/10/13 02:20:57;;;;;;;8.30;5.22;;;23.40;69.40;;;;;;5025957;28;20037;-34
2022/10/13 02:23:24;;;;;;;9.38;5.30;;;23.40;69.30;;;;;;5043989;28;20067;-33
2022/10/13 02:25:50;;;;;;;8.30;4.88;;;23.40;69.20;;;;;;5055958;28;20037;-36
2022/10/13 02:28:37;;;;;;;6.50;4.53;;;23.40;69.10;;;;;;5060628;28;20036;-42
2022/10/13 02:31:05;;;;;;;5.20;3.90;;;23.40;69.00;;;;;;5095731;28;20048;-43
2022/10/13 02:33:36;;;;;;;6.50;4.03;;;23.40;68.90;;;;;;5103708;28;20043;-43
2022/10/13 02:36:03;;;;;;;6.53;4.10;;;23.40;68.90;;;;;;5101644;28;20066;-43
2022/10/13 02:38:37;;;;;;;4.70;3.72;;;23.40;68.90;;;;;;5132051;27;20028;-42
2022/10/13 02:41:07;;;;;;;5.80;3.47;;;23.30;68.90;;;;;;5102061;28;20032;-45
2022/10/13 02:43:44;;;;;;;4.63;3.00;;;23.30;68.90;;;;;;5102426;28;20040;-43
2022/10/13 02:46:11;;;;;;;3.63;2.50;;;23.30;68.90;;;;;;5093877;28;20024;-42
2022/10/13 02:48:37;;;;;;;4.45;3.20;;;23.30;68.90;;;;;;5097493;28;20032;-44
2022/10/13 02:51:03;;;;;;;4.23;2.97;;;23.30;68.90;;;;;;5093555;28;20099;-42
2022/10/13 02:53:29;;;;;;;3.35;2.28;;;23.30;68.90;;;;;;5098729;28;20337;-44
2022/10/13 02:55:56;;;;;;;4.23;2.60;;;23.30;68.90;;;;;;5098945;28;20032;-44
2022/10/13 02:58:48;;;;;;;3.42;2.65;;;23.30;68.90;;;;;;5098386;28;20031;-42
2022/10/13 03:01:40;;;;;;;3.80;2.15;;;23.30;68.90;;;;;;5098099;28;20444;-42
2022/10/13 03:04:19;;;;;;;2.17;1.90;;;23.30;68.80;;;;;;5061550;28;20034;-42
2022/10/13 03:06:46;;;;;;;2.72;2.00;;;23.30;68.80;;;;;;5096828;28;20073;-41
2022/10/13 03:09:12;;;;;;;2.60;2.17;;;23.30;68.70;;;;;;5092613;28;20326;-41
2022/10/13 03:11:46;;;;;;;2.50;2.10;;;23.30;68.70;;;;;;5081078;28;20047;-39
2022/10/13 03:14:13;;;;;;;2.45;1.95;;;23.30;68.70;;;;;;5095584;28;20449;-42
2022/10/13 03:16:39;;;;;;;2.30;1.60;;;23.30;68.70;;;;;;5095973;28;20092;-42
2022/10/13 03:19:05;;;;;;;2.35;1.80;;;23.30;68.70;;;;;;5096392;28;20020;-43
2022/10/13 03:21:31;;;;;;;1.92;1.52;;;23.30;68.80;;;;;;5080282;28;20044;-44
2022/10/13 03:23:58;;;;;;;2.00;1.42;;;23.20;68.70;;;;;;5094066;28;20032;-42
2022/10/13 03:26:24;;;;;;;2.28;1.58;;;23.20;68.80;;;;;;5093611;28;20067;-44
2022/10/13 03:28:50;;;;;;;2.42;1.52;;;23.20;68.70;;;;;;5095063;28;20028;-44
2022/10/13 03:31:16;;;;;;;2.47;1.50;;;23.20;68.70;;;;;;5095096;28;20044;-42
2022/10/13 03:33:43;;;;;;;2.10;1.20;;;23.20;68.70;;;;;;5093309;28;20031;-42
2022/10/13 03:36:09;;;;;;;2.10;1.42;;;23.20;68.70;;;;;;5092104;28;20032;-44
2022/10/13 03:38:36;;;;;;;1.80;1.25;;;23.20;68.80;;;;;;5091201;28;20088;-42
2022/10/13 03:41:12;;;;;;;2.35;1.30;;;23.20;68.80;;;;;;5093429;28;20062;-43
2022/10/13 03:43:39;;;;;;;1.65;1.10;;;23.10;68.80;;;;;;5091610;28;21821;-43
2022/10/13 03:46:05;;;;;;;2.47;1.20;;;23.10;68.90;;;;;;5095713;28;20044;-44
2022/10/13 03:48:32;;;;;;;1.23;1.00;;;23.10;68.90;;;;;;5094055;28;20032;-44
2022/10/13 03:50:58;;;;;;;1.40;1.10;;;23.10;69.00;;;;;;5091659;28;20047;-45
2022/10/13 03:53:25;;;;;;;0.90;0.90;;;23.10;69.00;;;;;;5098202;28;20039;-44
2022/10/13 03:55:53;;;;;;;1.95;1.17;;;23.10;69.20;;;;;;5099233;28;20054;-43
2022/10/13 03:58:19;;;;;;;1.58;0.90;;;23.10;69.40;;;;;;5096593;28;20039;-43
2022/10/13 04:00:45;;;;;;;2.00;1.17;;;23.10;69.50;;;;;;5096948;28;20047;-43
2022/10/13 04:03:11;;;;;;;1.30;1.10;;;23.10;69.20;;;;;;5097813;28;20161;-43
2022/10/13 04:05:37;;;;;;;0.95;0.85;;;23.10;69.20;;;;;;5097512;28;20511;-44
2022/10/13 04:08:04;;;;;;;0.98;0.85;;;23.10;69.20;;;;;;5101440;28;20032;-42
2022/10/13 04:10:30;;;;;;;1.00;0.90;;;23.10;69.10;;;;;;5100429;28;20059;-43
2022/10/13 04:12:57;;;;;;;1.30;1.17;;;23.10;69.10;;;;;;5101966;28;20035;-44
2022/10/13 04:15:23;;;;;;;1.13;0.93;;;23.10;69.10;;;;;;5097910;28;20028;-44
2022/10/13 04:17:49;;;;;;;0.73;0.73;;;23.10;69.10;;;;;;5101435;28;20101;-43
2022/10/13 04:20:15;;;;;;;1.95;0.70;;;23.10;69.10;;;;;;5100728;28;20039;-41
2022/10/13 04:22:41;;;;;;;0.65;0.65;;;23.10;69.00;;;;;;5100329;28;20062;-42
2022/10/13 04:25:08;;;;;;;1.00;0.73;;;23.10;69.00;;;;;;5101452;28;20070;-43
2022/10/13 04:27:37;;;;;;;1.15;0.95;;;23.10;68.90;;;;;;5101698;28;20035;-44
2022/10/13 04:30:06;;;;;;;0.60;0.60;;;23.10;68.90;;;;;;5100304;28;20040;-44
2022/10/13 04:32:32;;;;;;;1.00;0.90;;;23.10;68.90;;;;;;5101610;28;20110;-43
2022/10/13 04:34:58;;;;;;;0.73;0.73;;;23.10;68.90;;;;;;5099522;28;20091;-44
2022/10/13 04:37:24;;;;;;;0.98;0.88;;;23.10;68.80;;;;;;5101638;28;20579;-43
2022/10/13 04:39:50;;;;;;;1.05;0.70;;;23.10;68.90;;;;;;5098818;28;20028;-40
2022/10/13 04:42:17;;;;;;;0.85;0.75;;;23.10;69.00;;;;;;5101121;28;20024;-42
2022/10/13 04:44:43;;;;;;;0.73;0.73;;;23.10;69.10;;;;;;5102315;28;20054;-42
2022/10/13 04:47:09;;;;;;;0.70;0.70;;;23.10;69.10;;;;;;5106264;28;20023;-43
2022/10/13 04:49:35;;;;;;;0.77;0.77;;;23.10;69.00;;;;;;5105163;28;20050;-43
2022/10/13 04:52:01;;;;;;;1.00;0.70;;;23.00;69.00;;;;;;5104351;28;20096;-43
2022/10/13 04:54:27;;;;;;;0.65;0.65;;;23.00;68.90;;;;;;5103336;28;20019;-41
2022/10/13 04:56:53;;;;;;;0.82;0.73;;;23.00;69.00;;;;;;5108458;28;20031;-43
2022/10/13 04:59:19;;;;;;;0.90;0.60;;;23.10;68.90;;;;;;5108299;28;20019;-43
2022/10/13 05:01:45;;;;;;;0.60;0.60;;;23.10;68.80;;;;;;5106922;28;20062;-45
2022/10/13 05:04:12;;;;;;;1.13;0.80;;;23.10;68.80;;;;;;5110636;28;20016;-43
2022/10/13 05:06:39;;;;;;;0.90;0.73;;;23.10;68.80;;;;;;5107229;28;20039;-44
2022/10/13 05:09:05;;;;;;;0.63;0.50;;;23.00;68.70;;;;;;5108742;28;20027;-42
2022/10/13 05:11:32;;;;;;;1.45;0.70;;;23.00;68.70;;;;;;5104357;28;20123;-42
2022/10/13 05:13:58;;;;;;;0.77;0.70;;;23.00;68.80;;;;;;5108807;28;20032;-42
2022/10/13 05:16:25;;;;;;;1.08;0.50;;;23.00;68.70;;;;;;5107852;28;20039;-43
2022/10/13 05:18:52;;;;;;;0.80;0.55;;;23.00;68.80;;;;;;5107960;28;20458;-37
2022/10/13 05:21:23;;;;;;;0.70;0.70;;;23.00;68.80;;;;;;5110494;28;20081;-43
2022/10/13 05:23:52;;;;;;;0.70;0.70;;;23.00;68.70;;;;;;5112312;28;20482;-42
2022/10/13 05:26:19;;;;;;;0.82;0.70;;;23.00;68.70;;;;;;5109124;28;20032;-43
2022/10/13 05:28:45;;;;;;;1.23;0.70;;;23.00;68.70;;;;;;5108591;28;20095;-43
2022/10/13 05:31:11;;;;;;;1.15;0.73;;;23.00;69.70;;;;;;5111410;28;20067;-42
2022/10/13 05:33:38;;;;;;;0.82;0.65;;;23.00;69.00;;;;;;5114529;28;20028;-43
2022/10/13 05:36:11;;;;;;;0.95;0.60;;;23.00;69.10;;;;;;5116875;28;20180;-43
2022/10/13 05:38:38;;;;;;;0.52;0.52;;;23.00;69.00;;;;;;5114894;28;20020;-42
2022/10/13 05:41:11;;;;;;;0.47;0.47;;;23.00;68.80;;;;;;5114389;28;20035;-41
2022/10/13 05:43:41;;;;;;;1.23;0.80;;;23.00;68.90;;;;;;5116736;28;20119;-41
2022/10/13 05:46:07;;;;;;;0.70;0.70;;;22.90;68.80;;;;;;5113718;28;20050;-42
2022/10/13 05:48:33;;;;;;;0.63;0.63;;;22.90;68.80;;;;;;5113878;28;20054;-45
2022/10/13 05:51:00;;;;;;;1.00;0.70;;;22.90;68.80;;;;;;5111501;28;20020;-43
2022/10/13 05:53:28;;;;;;;0.50;0.50;;;22.90;68.70;;;;;;5113909;28;20488;-44
2022/10/13 05:55:54;;;;;;;0.85;0.60;;;22.90;68.80;;;;;;5099829;28;20043;-42
2022/10/13 05:58:20;;;;;;;1.17;0.60;;;22.90;68.80;;;;;;5113705;28;20012;-43
2022/10/13 06:00:46;;;;;;;0.70;0.70;;;22.90;68.80;;;;;;5106901;28;20042;-45
2022/10/13 06:03:17;;;;;;;1.02;0.50;;;22.90;68.70;;;;;;5107094;28;20091;-43
2022/10/13 06:05:44;;;;;;;0.68;0.60;;;22.90;68.70;;;;;;5109718;28;20024;-36
2022/10/13 06:08:10;;;;;;;0.88;0.88;;;22.90;68.80;;;;;;5111225;28;20714;-35
2022/10/13 06:10:36;;;;;;;1.85;0.60;;;22.90;68.80;;;;;;5108335;28;20047;-33
2022/10/13 06:13:02;;;;;;;0.70;0.70;;;22.90;68.70;;;;;;5111571;28;20031;-34
2022/10/13 06:15:28;;;;;;;0.75;0.65;;;22.90;68.60;;;;;;5105889;28;20024;-34
2022/10/13 06:17:54;;;;;;;0.70;0.65;;;22.90;68.50;;;;;;5111863;28;20088;-34
2022/10/13 06:20:21;;;;;;;0.80;0.77;;;22.90;69.30;;;;;;5109552;28;20039;-32
2022/10/13 06:22:49;;;;;;;0.70;0.70;;;22.90;68.60;;;;;;5111339;28;20019;-32
2022/10/13 06:25:15;;;;;;;2.33;0.63;;;22.90;68.50;;;;;;5108977;28;20027;-33
2022/10/13 06:27:41;;;;;;;2.10;0.57;;;22.90;68.70;;;;;;5108487;28;20608;-33
2022/10/13 06:30:08;;;;;;;0.57;0.57;;;22.90;69.00;;;;;;5109748;28;20026;-33
2022/10/13 06:32:34;;;;;;;0.70;0.70;;;22.80;69.20;;;;;;5104960;28;20035;-33
2022/10/13 06:35:00;;;;;;;0.57;0.57;;;22.80;69.30;;;;;;5106061;28;20032;-33
2022/10/13 06:37:26;;;;;;;0.80;0.80;;;22.80;69.30;;;;;;5107245;28;20075;-32
2022/10/13 06:39:53;;;;;;;0.70;0.70;;;22.80;69.30;;;;;;5107963;28;20103;-34
2022/10/13 06:42:19;;;;;;;1.10;0.70;;;22.80;69.30;;;;;;5105465;28;20039;-34
2022/10/13 06:44:45;;;;;;;0.70;0.70;;;22.80;69.20;;;;;;5106887;28;20028;-34
2022/10/13 06:47:11;;;;;;;1.02;0.77;;;22.80;69.80;;;;;;5109495;28;20024;-32
2022/10/13 06:49:37;;;;;;;0.70;0.70;;;22.70;69.90;;;;;;5108767;28;20032;-32
2022/10/13 06:52:03;;;;;;;0.60;0.60;;;22.70;70.00;;;;;;5109237;28;20030;-32
2022/10/13 06:54:30;;;;;;;0.98;0.70;;;22.70;69.90;;;;;;5110102;28;20024;-33
2022/10/13 06:56:56;;;;;;;0.80;0.63;;;22.70;69.70;;;;;;5109282;28;20154;-33
2022/10/13 06:59:22;;;;;;;0.70;0.70;;;22.70;70.50;;;;;;5107645;28;20028;-33
2022/10/13 07:01:49;;;;;;;0.73;0.68;;;22.70;69.50;;;;;;5108060;28;20071;-33
2022/10/13 07:04:15;;;;;;;0.65;0.65;;;22.70;69.40;;;;;;5106248;28;20024;-34
2022/10/13 07:06:41;;;;;;;0.80;0.70;;;22.70;70.10;;;;;;5113117;28;20050;-33
2022/10/13 07:09:07;;;;;;;0.65;0.60;;;22.70;69.30;;;;;;5109451;28;20058;-33
2022/10/13 07:11:34;;;;;;;0.70;0.70;;;22.70;69.30;;;;;;5108541;28;20047;-34
2022/10/13 07:14:00;;;;;;;0.77;0.70;;;22.70;69.10;;;;;;5112890;28;20175;-33
2022/10/13 07:16:26;;;;;;;1.00;0.85;;;22.70;69.40;;;;;;5107088;28;20328;-34
2022/10/13 07:18:52;;;;;;;1.00;0.88;;;22.70;69.40;;;;;;5108868;28;20475;-34
2022/10/13 07:21:19;;;;;;;0.90;0.90;;;22.70;69.30;;;;;;5107552;28;20136;-34
2022/10/13 07:23:45;;;;;;;0.65;0.65;;;22.70;69.30;;;;;;5107614;28;20031;-34
2022/10/13 07:26:12;;;;;;;0.70;0.70;;;22.70;69.20;;;;;;5109212;28;20093;-34
2022/10/13 07:28:39;;;;;;;0.80;0.80;;;22.70;69.20;;;;;;5110709;28;20031;-34
2022/10/13 07:31:15;;;;;;;0.70;0.70;;;22.70;69.20;;;;;;5104009;28;20023;-35
2022/10/13 07:33:42;;;;;;;0.95;0.80;;;22.70;69.10;;;;;;5109185;28;20032;-34
2022/10/13 07:36:08;;;;;;;;;;;22.70;69.20;;;;;;5109010;28;20085;-35
2022/10/13 07:38:35;;;;;;;0.90;0.90;;;22.70;69.00;;;;;;5112029;28;19911;-34
2022/10/13 07:41:02;;;;;;;0.70;0.70;;;22.70;69.10;;;;;;5110097;28;20529;-33
2022/10/13 07:43:28;;;;;;;;;;;22.70;69.10;;;;;;5106503;28;20024;-34
2022/10/13 07:45:54;;;;;;;1.08;0.80;;;22.70;69.10;;;;;;5104417;28;19971;-34
2022/10/13 07:48:20;;;;;;;0.73;0.68;;;22.70;69.20;;;;;;5106223;28;20027;-34
2022/10/13 07:50:46;;;;;;;0.65;0.65;;;22.70;69.20;;;;;;5100922;28;20763;-34
2022/10/13 07:53:12;;;;;;;0.95;0.75;;;22.70;69.20;;;;;;5139351;27;20110;-34
2022/10/13 07:55:38;;;;;;;0.80;0.77;;;22.60;69.30;;;;;;5121508;28;20038;-34
2022/10/13 07:58:04;;;;;;;0.80;0.80;;;22.70;69.30;;;;;;5120534;28;20127;-34
2022/10/13 08:00:30;;;;;;;1.00;0.90;;;22.70;69.60;;;;;;5119473;28;20042;-34
2022/10/13 08:02:56;;;;;;;1.20;0.90;;;22.70;69.40;;;;;;5119109;28;20057;-34
2022/10/13 08:05:23;;;;;;;2.80;0.90;;;22.70;69.30;;;;;;5117610;28;20038;-34
2022/10/13 08:07:49;;;;;;;0.85;0.82;;;22.70;69.20;;;;;;5118826;28;20035;-34
2022/10/13 08:10:15;;;;;;;1.27;0.80;;;22.70;69.10;;;;;;5119487;28;20089;-34
2022/10/13 08:12:41;;;;;;;1.08;0.90;;;22.70;69.10;;;;;;5117016;28;20643;-33
2022/10/13 08:15:08;;;;;;;0.93;0.80;;;22.70;69.20;;;;;;5120086;28;20043;-34
2022/10/13 08:17:34;;;;;;;1.52;1.08;;;22.70;69.20;;;;;;5119031;28;20027;-37
2022/10/13 08:20:00;;;;;;;6.03;1.50;;;22.70;69.40;;;;;;5120462;28;20035;-34
2022/10/13 08:22:26;;;;;;;2.70;1.50;;;22.70;69.40;;;;;;5112224;28;20042;-34
2022/10/13 08:24:52;;;;;;;5.15;1.70;;;22.70;69.50;;;;;;5105956;28;20024;-34
2022/10/13 08:27:23;;;;;;;5.43;1.60;;;22.70;70.20;;;;;;5109904;28;20031;-34
2022/10/13 08:29:49;;;;;;;5.70;1.88;;;22.70;70.00;;;;;;5114343;28;20032;-36
2022/10/13 08:32:15;;;;;;;5.97;1.70;;;22.80;69.90;;;;;;5116113;28;20031;-36
2022/10/13 08:34:42;;;;;;;5.37;2.07;;;22.80;69.70;;;;;;5121008;28;20079;-36
2022/10/13 08:37:16;;;;;;;3.70;1.77;;;22.80;69.50;;;;;;5117763;28;20492;-36
2022/10/13 08:39:42;;;;;;;3.13;1.58;;;22.80;69.50;;;;;;5114414;28;20016;-35
2022/10/13 08:42:19;;;;;;;4.15;1.70;;;22.80;69.20;;;;;;5102004;28;20033;-35
2022/10/13 08:44:49;;;;;;;2.35;1.58;;;22.80;69.20;;;;;;5116714;28;20077;-36
2022/10/13 08:47:15;;;;;;;4.53;1.75;;;22.80;69.00;;;;;;5113077;28;20036;-36
2022/10/13 08:49:41;;;;;;;2.50;1.90;;;22.80;68.90;;;;;;5115080;28;20016;-36
2022/10/13 08:52:27;;;;;;;2.35;1.70;;;22.80;68.80;;;;;;5119672;28;20066;-35
2022/10/13 08:54:54;;;;;;;3.20;1.88;;;22.80;68.70;;;;;;5096073;28;20031;-35
2022/10/13 08:57:20;;;;;;;4.45;1.85;;;22.80;68.60;;;;;;5094386;28;20025;-35
2022/10/13 08:59:47;;;;;;;4.30;2.15;;;22.80;68.50;;;;;;5126709;27;20040;-35
2022/10/13 09:02:26;;;;;;;3.13;2.07;;;22.80;68.40;;;;;;5098765;28;20035;-35
2022/10/13 09:04:52;;;;;;;3.78;1.98;;;22.80;68.40;;;;;;5131787;27;20930;-37
2022/10/13 09:07:26;;;;;;;5.20;2.10;;;22.80;68.30;;;;;;5098538;28;20106;-36
2022/10/13 09:09:52;;;;;;;3.78;2.20;;;22.80;68.20;;;;;;5116873;28;20285;-35
2022/10/13 09:12:25;;;;;;;3.15;2.00;;;22.80;68.20;;;;;;5099328;28;20040;-35
2022/10/13 09:15:08;;;;;;;3.83;1.80;;;22.80;68.20;;;;;;5090997;28;20043;-35
2022/10/13 09:17:35;;;;;;;3.13;1.85;;;22.80;68.10;;;;;;5092052;28;20042;-35
2022/10/13 09:20:04;;;;;;;3.97;2.30;;;22.80;68.10;;;;;;5088405;28;20043;-38
2022/10/13 09:22:32;;;;;;;3.65;2.13;;;22.80;68.10;;;;;;5085589;28;20119;-38
2022/10/13 09:25:08;;;;;;;2.20;2.00;;;22.80;68.00;;;;;;5098914;28;20110;-38
2022/10/13 09:27:50;;;;;;;2.83;2.00;;;22.70;67.90;;;;;;5100701;28;20032;-38
2022/10/13 09:30:34;;;;;;;2.80;2.28;;;22.70;67.90;;;;;;5088038;28;20044;-36
2022/10/13 09:33:12;;;;;;;2.65;1.98;;;22.80;67.90;;;;;;5096015;28;20028;-36
2022/10/13 09:36:05;;;;;;;2.80;1.80;;;22.70;67.80;;;;;;5099405;28;20376;-36
2022/10/13 09:38:31;;;;;;;2.92;2.17;;;22.70;67.70;;;;;;5085441;28;20044;-37
2022/10/13 09:41:04;;;;;;;2.40;2.20;;;22.70;67.60;;;;;;5090066;28;20036;-38
2022/10/13 09:43:42;;;;;;;3.58;2.00;;;22.80;67.70;;;;;;5102756;28;20024;-38
2022/10/13 09:46:21;;;;;;;2.78;2.10;;;22.70;67.60;;;;;;5096178;28;20066;-38
2022/10/13 09:48:53;;;;;;;3.75;2.28;;;22.70;67.60;;;;;;5117055;27;20033;-35
2022/10/13 09:51:39;;;;;;;3.20;2.25;;;22.70;67.60;;;;;;5089889;28;20037;-35
2022/10/13 09:54:21;;;;;;;3.30;2.28;;;22.70;67.50;;;;;;5124388;27;20060;-36
2022/10/13 09:56:50;;;;;;;3.35;2.13;;;22.70;67.50;;;;;;5105738;28;20602;-36
2022/10/13 09:59:39;;;;;;;2.70;2.40;;;22.70;67.40;;;;;;5127042;28;21509;-35
2022/10/13 10:02:43;;;;;;;3.55;2.00;;;22.70;67.50;;;;;;5105858;28;20036;-36
2022/10/13 10:05:25;;;;;;;3.33;2.15;;;22.70;67.50;;;;;;5086889;28;20032;-44
2022/10/13 10:07:51;;;;;;;3.33;2.22;;;22.70;67.50;;;;;;5092762;28;20070;-40
2022/10/13 10:10:36;;;;;;;2.60;1.90;;;22.70;67.40;;;;;;5098448;28;20020;-37
2022/10/13 10:13:02;;;;;;;2.42;2.08;;;22.70;67.50;;;;;;5093412;28;20028;-38
2022/10/13 10:15:47;;;;;;;2.38;2.00;;;22.70;67.60;;;;;;5099162;28;20134;-39
2022/10/13 10:18:21;;;;;;;3.97;1.65;;;22.70;68.20;;;;;;5092739;28;20036;-39
2022/10/13 10:21:18;;;;;;;2.72;2.50;;;22.70;68.80;;;;;;5120298;27;20039;-38
2022/10/13 10:23:45;;;;;;;3.58;2.00;;;22.70;69.10;;;;;;5109685;27;20129;-38
2022/10/13 10:26:50;;;;;;;4.13;2.47;;;22.70;69.30;;;;;;5125857;27;20389;-38
2022/10/13 10:29:54;;;;;;;11.55;2.65;;;22.70;69.70;;;;;;5079762;28;20377;-37
2022/10/13 10:32:35;;;;;;;4.55;2.50;;;22.70;70.00;;;;;;5074799;28;20179;-40
2022/10/13 10:35:15;;;;;;;28.48;17.25;;;22.70;70.20;;;;;;5081902;28;20130;-38
2022/10/13 10:38:04;;;;;;;27.35;7.25;;;22.70;70.10;;;;;;5072660;28;20106;-38
2022/10/13 10:40:38;;;;;;;30.98;7.40;;;22.70;70.10;;;;;;5077542;28;20060;-38
2022/10/13 10:43:14;;;;;;;31.13;7.63;;;22.70;69.70;;;;;;5077775;28;20037;-39
2022/10/13 10:45:40;;;;;;;73.47;43.78;;;22.70;69.60;;;;;;5087326;28;20162;-40
2022/10/13 10:48:25;;;;;;;39.38;11.65;;;22.70;70.10;;;;;;5078639;28;20032;-44
2022/10/13 10:50:52;;;;;;;32.17;8.98;;;22.70;70.10;;;;;;5093934;28;20048;-38
2022/10/13 10:53:39;;;;;;;34.08;8.95;;;22.70;70.10;;;;;;5086996;28;20017;-38
2022/10/13 10:56:05;;;;;;;24.95;8.05;;;22.70;70.30;;;;;;5094462;28;20047;-38
2022/10/13 10:58:55;;;;;;;30.15;7.90;;;22.70;69.80;;;;;;5079842;28;20024;-38
2022/10/13 11:01:25;;;;;;;21.23;7.18;;;22.70;69.70;;;;;;5075447;28;20044;-37
2022/10/13 11:03:59;;;;;;;26.42;7.45;;;22.70;69.50;;;;;;5091954;28;20032;-38
2022/10/13 11:06:33;;;;;;;28.17;7.22;;;22.70;69.50;;;;;;5083342;28;20028;-37
2022/10/13 11:08:59;;;;;;;25.35;7.25;;;22.70;69.40;;;;;;5084627;28;20096;-37
2022/10/13 11:11:25;;;;;;;18.90;6.22;;;22.70;69.20;;;;;;5095974;28;20063;-37
2022/10/13 11:14:04;;;;;;;21.83;6.80;;;22.70;69.10;;;;;;5104698;28;20041;-38
2022/10/13 11:16:57;;;;;;;25.48;6.93;;;22.70;69.00;;;;;;5104294;28;20056;-37
2022/10/13 11:19:39;;;;;;;20.42;6.40;;;22.70;69.00;;;;;;5096275;28;20024;-38
2022/10/13 11:22:05;;;;;;;15.98;5.95;;;22.70;68.90;;;;;;5084480;28;20044;-37
2022/10/13 11:24:40;;;;;;;18.38;6.45;;;22.70;68.80;;;;;;5084212;28;20028;-38
2022/10/13 11:27:15;;;;;;;20.00;6.35;;;22.70;68.80;;;;;;5084254;28;20054;-38
2022/10/13 11:32:26;;;;;;;13.80;5.32;;;22.70;68.70;;;;;;5094193;28;20031;-38
2022/10/13 11:35:04;;;;;;;17.98;5.75;;;22.70;68.70;;;;;;5104184;28;20059;-38
2022/10/13 11:37:39;;;;;;;21.83;5.50;;;22.70;68.60;;;;;;5104449;28;20076;-38
2022/10/13 11:40:16;;;;;;;16.00;5.57;;;22.70;68.60;;;;;;5116490;28;20035;-40
2022/10/13 11:43:03;;;;;;;16.00;4.93;;;22.70;68.50;;;;;;5124370;28;20046;-38
2022/10/13 11:45:41;;;;;;;15.68;4.72;;;22.70;68.50;;;;;;5105910;28;20027;-38
2022/10/13 11:48:14;;;;;;;17.00;4.97;;;22.60;68.40;;;;;;5103870;28;20066;-38
2022/10/13 11:50:55;;;;;;;17.60;5.15;;;22.70;68.40;;;;;;5118859;27;20040;-38
2022/10/13 11:53:26;;;;;;;11.80;4.45;;;22.60;68.40;;;;;;5109533;28;20106;-37
2022/10/13 11:55:57;;;;;;;15.75;4.95;;;22.60;68.40;;;;;;5124483;28;20038;-38
2022/10/13 11:58:25;;;;;;;12.63;4.78;;;22.60;68.30;;;;;;5122992;28;20016;-38
2022/10/13 12:00:58;;;;;;;10.90;4.32;;;22.60;68.30;;;;;;5091850;28;20032;-38
2022/10/13 12:03:26;;;;;;;12.30;4.50;;;22.60;68.30;;;;;;5096998;28;20031;-38
2022/10/13 12:05:52;;;;;;;11.85;4.55;;;22.60;68.30;;;;;;5105760;28;20027;-38
2022/10/13 12:08:19;;;;;;;11.80;4.67;;;22.60;68.20;;;;;;5126134;27;20396;-38
2022/10/13 12:10:45;;;;;;;;;;;22.60;68.20;;;;;;5083924;28;20044;-38
2022/10/13 12:13:25;;;;;;;9.75;4.13;;;22.60;68.10;;;;;;5083397;28;19972;-38
2022/10/13 12:16:07;;;;;;;9.85;4.40;;;22.60;68.20;;;;;;5115125;28;20095;-38
2022/10/13 12:18:35;;;;;;;11.63;4.32;;;22.60;68.20;;;;;;5095208;28;20358;-38
2022/10/13 12:21:10;;;;;;;10.45;4.28;;;22.60;68.20;;;;;;5103277;28;20047;-38
2022/10/13 12:23:36;;;;;;;10.63;4.05;;;22.60;68.20;;;;;;5102602;28;20028;-38
2022/10/13 12:26:02;;;;;;;10.93;3.95;;;22.60;68.10;;;;;;5103450;28;20034;-38
2022/10/13 12:28:41;;;;;;;10.27;4.00;;;22.60;68.10;;;;;;5103722;28;20024;-38
2022/10/13 12:31:36;;;;;;;9.27;3.97;;;22.50;68.10;;;;;;5090006;28;20048;-37
2022/10/13 12:34:02;;;;;;;8.32;3.70;;;22.50;68.00;;;;;;5072861;28;20045;-38
2022/10/13 12:36:32;;;;;;;9.68;3.83;;;22.50;68.80;;;;;;5060299;28;20033;-38
2022/10/13 12:39:06;;;;;;;8.52;3.65;;;22.50;68.00;;;;;;5060067;28;20036;-38
2022/10/13 12:41:36;;;;;;;9.63;3.75;;;22.50;68.00;;;;;;5075490;28;20045;-38
2022/10/13 12:44:03;;;;;;;9.50;3.88;;;22.50;68.00;;;;;;5076063;28;20032;-38
2022/10/13 12:46:35;;;;;;;8.57;3.50;;;22.50;68.00;;;;;;5054845;28;20748;-38
2022/10/13 12:49:13;;;;;;;8.13;3.72;;;22.50;68.00;;;;;;5073879;28;20060;-38
2022/10/13 12:51:41;;;;;;;8.90;3.55;;;22.50;68.00;;;;;;5059889;28;20033;-38
2022/10/13 12:54:11;;;;;;;10.52;3.55;;;22.50;68.00;;;;;;5043148;28;20063;-38
2022/10/13 12:56:37;;;;;;;8.80;3.80;;;22.50;68.00;;;;;;5058666;28;20060;-38
2022/10/13 12:59:03;;;;;;;8.05;3.53;;;22.50;68.00;;;;;;5061941;28;20481;-38
2022/10/13 13:01:33;;;;;;;7.22;3.33;;;22.50;68.00;;;;;;5059630;28;20033;-37
2022/10/13 13:04:02;;;;;;;7.35;3.40;;;22.40;68.00;;;;;;5059548;28;20051;-38